Time;durP1;ratioP1;P1;durP2;ratioP2;P2;SDS_P1;SDS_P2;PMS_P1;PMS_P2;Temp;Humidity;BMP_temperature;BMP_pressure;BME280_temperature;BME280_humidity;BME280_pressure;Samples;Min_cycle;Max_cycle;Signal;HPM_P1;HPM_P2
2023/01/03 00:00:31;;;;;;;;;;;;;;;10.36;100.00;99143.91;4288085;33;20445;-72
2023/01/03 00:03:18;;;;;;;;;;;;;;;10.50;100.00;99142.50;4296338;33;20022;-73
2023/01/03 00:05:45;;;;;;;;;;;;;;;10.42;100.00;99142.94;4298179;33;20291;-73
2023/01/03 00:08:12;;;;;;;;;;;;;;;10.53;100.00;99146.59;4298431;33;20004;-73
2023/01/03 00:10:38;;;;;;;;;;;;;;;10.34;100.00;99162.97;4298322;33;20374;-73
2023/01/03 00:13:04;;;;;;;;;;;;;;;10.42;100.00;99159.06;4295395;33;19941;-73
2023/01/03 00:15:33;;;;;;;;;;;;;;;10.59;100.00;99169.00;4274397;33;20025;-73
2023/01/03 00:17:59;;;;;;;;;;;;;;;10.61;100.00;99162.31;4282609;33;19953;-74
2023/01/03 00:20:25;;;;;;;;;;;;;;;10.71;100.00;99172.44;4282466;33;19941;-74
2023/01/03 00:22:52;;;;;;;;;;;;;;;10.51;100.00;99178.31;4280746;33;19984;-74
2023/01/03 00:25:18;;;;;;;;;;;;;;;10.83;100.00;99173.16;4281283;33;19980;-73
2023/01/03 00:27:44;;;;;;;;;;;;;;;10.80;100.00;99184.41;4282202;33;20344;-73
2023/01/03 00:30:10;;;;;;;;;;;;;;;10.78;100.00;99193.78;4280687;33;19961;-73
2023/01/03 00:32:36;;;;;;;;;;;;;;;10.75;100.00;99184.31;4280264;33;19953;-73
2023/01/03 00:35:03;;;;;;;;;;;;;;;10.45;100.00;99196.28;4281245;33;19975;-72
2023/01/03 00:37:29;;;;;;;;;;;;;;;10.45;100.00;99196.28;4280965;33;19945;-73
2023/01/03 00:39:55;;;;;;;;;;;;;;;10.49;100.00;99197.41;4281272;33;20458;-73
2023/01/03 00:42:21;;;;;;;;;;;;;;;10.64;100.00;99204.09;4280677;33;20027;-74
2023/01/03 00:44:47;;;;;;;;;;;;;;;10.99;100.00;99211.91;4280134;33;19941;-73
2023/01/03 00:47:14;;;;;;;;;;;;;;;10.40;100.00;99212.31;4279493;33;20007;-73
2023/01/03 00:49:40;;;;;;;;;;;;;;;11.05;100.00;99210.06;4277541;33;20309;-73
2023/01/03 00:52:06;;;;;;;;;;;;;;;10.54;100.00;99218.19;4280312;33;19953;-74
2023/01/03 00:54:32;;;;;;;;;;;;;;;10.88;100.00;99227.09;4267755;33;20029;-73
2023/01/03 00:56:58;;;;;;;;;;;;;;;10.79;100.00;99216.97;4267102;33;19964;-74
2023/01/03 00:59:25;;;;;;;;;;;;;;;11.08;100.00;99209.59;4271799;33;19955;-73
2023/01/03 03:02:13;;;;;;;;;;;;;;;9.71;100.00;99368.37;4419085;27;19968;-72
2023/01/03 03:04:41;;;;;;;;;;;;;;;9.94;100.00;99367.50;4310955;33;19957;-73
2023/01/03 03:07:13;;;;;;;;;;;;;;;9.90;100.00;99360.97;4311711;33;19948;-73
2023/01/03 03:15:14;;;;;;;;;;;;;;;9.68;100.00;99358.88;4314050;33;19958;-73
2023/01/03 03:17:41;;;;;;;;;;;;;;;9.53;100.00;99372.00;4311222;33;19956;-72
2023/01/03 03:25:58;;;;;;;;;;;;;;;9.59;100.00;99376.44;4313778;33;19959;-72
2023/01/03 03:28:36;;;;;;;;;;;;;;;9.73;100.00;99387.75;4313477;33;20356;-73
2023/01/03 03:31:06;;;;;;;;;;;;;;;9.66;100.00;99395.94;4324094;33;20286;-73
2023/01/03 03:33:36;;;;;;;;;;;;;;;9.62;100.00;99398.31;4327466;33;20067;-73
2023/01/03 03:36:16;;;;;;;;;;;;;;;9.67;100.00;99405.66;4328219;33;19949;-73
2023/01/03 03:38:43;;;;;;;;;;;;;;;9.57;100.00;99406.25;4327285;33;19952;-72
2023/01/03 03:47:11;;;;;;;;;;;;;;;9.48;100.00;99434.53;4312954;33;20087;-73
2023/01/03 03:49:40;;;;;;;;;;;;;;;9.66;100.00;99425.53;4313714;33;19992;-74
2023/01/03 03:52:18;;;;;;;;;;;;;;;9.71;100.00;99422.94;4311141;33;20003;-73
2023/01/03 03:54:49;;;;;;;;;;;;;;;9.62;100.00;99429.72;4317609;33;19967;-73
2023/01/03 03:57:19;;;;;;;;;;;;;;;9.77;100.00;99432.78;4327932;33;19949;-73
2023/01/03 03:59:48;;;;;;;;;;;;;;;9.31;100.00;99439.75;4327684;33;19947;-73
2023/01/03 04:02:16;;;;;;;;;;;;;;;9.58;100.00;99447.38;4325123;33;19955;-73
2023/01/03 04:04:46;;;;;;;;;;;;;;;9.59;100.00;99441.78;4327254;33;20044;-73
2023/01/03 04:07:12;;;;;;;;;;;;;;;9.58;100.00;99450.06;4295078;33;20016;-73
2023/01/03 04:09:38;;;;;;;;;;;;;;;9.78;100.00;99431.72;4282270;33;20097;-73
2023/01/03 04:12:05;;;;;;;;;;;;;;;9.37;100.00;99449.59;4280332;33;19953;-73
2023/01/03 04:14:31;;;;;;;;;;;;;;;9.14;100.00;99444.97;4238629;33;19954;-73
2023/01/03 04:17:03;;;;;;;;;;;;;;;9.53;100.00;99447.28;4241807;33;19975;-73
2023/01/03 04:19:30;;;;;;;;;;;;;;;9.53;100.00;99452.66;4197933;34;19961;-72
2023/01/03 04:21:56;;;;;;;;;;;;;;;9.24;100.00;99460.56;4195616;34;19947;-72
2023/01/03 04:24:22;;;;;;;;;;;;;;;9.24;100.00;99465.94;4197565;34;20297;-73
2023/01/03 04:26:49;;;;;;;;;;;;;;;9.52;100.00;99472.50;4211197;34;19969;-72
2023/01/03 04:29:15;;;;;;;;;;;;;;;9.28;100.00;99467.09;4211474;34;19953;-73
2023/01/03 04:31:41;;;;;;;;;;;;;;;9.44;100.00;99470.97;4221593;34;19954;-73
2023/01/03 04:34:08;;;;;;;;;;;;;;;9.41;100.00;99477.66;4211191;34;20358;-72
2023/01/03 04:36:34;;;;;;;;;;;;;;;9.24;100.00;99444.44;4208484;34;19947;-73
2023/01/03 04:39:00;;;;;;;;;;;;;;;9.17;100.00;99481.31;4222323;34;19953;-73
2023/01/03 04:41:27;;;;;;;;;;;;;;;9.24;100.00;99482.84;4244631;33;20306;-73
2023/01/03 04:44:03;;;;;;;;;;;;;;;9.21;100.00;99479.81;4253519;33;19955;-74
2023/01/03 04:46:34;;;;;;;;;;;;;;;9.05;100.00;99484.78;4276152;33;20251;-73
2023/01/03 04:49:00;;;;;;;;;;;;;;;9.39;100.00;99485.09;4282085;33;19950;-74
2023/01/03 04:51:27;;;;;;;;;;;;;;;9.28;100.00;99493.97;4290312;33;19955;-73
2023/01/03 04:53:54;;;;;;;;;;;;;;;9.23;100.00;99496.53;4281296;33;19945;-72
2023/01/03 04:56:27;;;;;;;;;;;;;;;9.16;100.00;99485.88;4292679;33;19946;-72
2023/01/03 04:58:54;;;;;;;;;;;;;;;9.29;100.00;99484.84;4294974;33;19953;-73
2023/01/03 05:01:20;;;;;;;;;;;;;;;9.25;100.00;99489.03;4259216;33;20294;-72
2023/01/03 05:03:47;;;;;;;;;;;;;;;9.40;100.00;99496.69;4267285;33;19987;-72
2023/01/03 05:06:14;;;;;;;;;;;;;;;9.30;100.00;99496.41;4259391;33;19949;-73
2023/01/03 05:08:42;;;;;;;;;;;;;;;9.48;100.00;99492.81;4252150;33;20113;-72
2023/01/03 05:11:08;;;;;;;;;;;;;;;9.40;100.00;99502.88;4261073;33;19987;-73
2023/01/03 05:13:35;;;;;;;;;;;;;;;9.19;100.00;99500.69;4267211;33;19945;-73
2023/01/03 05:16:05;;;;;;;;;;;;;;;9.26;100.00;99498.75;4262263;33;19968;-73
2023/01/03 05:18:31;;;;;;;;;;;;;;;9.33;100.00;99496.78;4278743;33;19963;-72
2023/01/03 05:26:32;;;;;;;;;;;;;;;9.40;100.00;99510.94;4284041;33;19941;-72
2023/01/03 05:28:59;;;;;;;;;;;;;;;9.34;100.00;99514.53;4289687;33;20157;-73
2023/01/03 05:31:25;;;;;;;;;;;;;;;9.38;100.00;99515.72;4294184;33;20347;-72
2023/01/03 05:33:51;;;;;;;;;;;;;;;8.97;100.00;99524.59;4293235;33;19955;-73
2023/01/03 05:36:17;;;;;;;;;;;;;;;9.24;100.00;99522.34;4295640;33;20251;-73
2023/01/03 05:38:43;;;;;;;;;;;;;;;9.27;100.00;99536.13;4284173;33;19953;-72
2023/01/03 05:41:11;;;;;;;;;;;;;;;9.12;100.00;99521.47;4284802;33;20046;-73
2023/01/03 05:43:37;;;;;;;;;;;;;;;9.16;100.00;99506.53;4295729;33;20060;-73
2023/01/03 05:46:04;;;;;;;;;;;;;;;9.39;100.00;99522.72;4280200;33;19965;-73
2023/01/03 05:48:31;;;;;;;;;;;;;;;9.33;100.00;99530.91;4280389;33;20130;-73
2023/01/03 05:50:57;;;;;;;;;;;;;;;9.29;100.00;99525.16;4277133;33;20339;-72
2023/01/03 05:53:24;;;;;;;;;;;;;;;9.11;100.00;99525.22;4277912;33;19950;-72
2023/01/03 05:55:50;;;;;;;;;;;;;;;9.23;100.00;99544.88;4279754;33;20354;-72
2023/01/03 05:58:16;;;;;;;;;;;;;;;9.27;100.00;99535.34;4272876;33;19954;-73
2023/01/03 06:00:42;;;;;;;;;;;;;;;9.42;100.00;99543.78;4286296;33;19972;-73
2023/01/03 06:03:09;;;;;;;;;;;;;;;9.17;100.00;99545.78;4278450;33;19993;-72
2023/01/03 06:05:35;;;;;;;;;;;;;;;9.36;100.00;99542.00;4288937;33;19948;-73
2023/01/03 06:08:01;;;;;;;;;;;;;;;9.12;100.00;99554.53;4280199;33;19973;-73
2023/01/03 06:10:28;;;;;;;;;;;;;;;8.89;100.00;99544.50;4290658;33;19957;-73
2023/01/03 06:12:54;;;;;;;;;;;;;;;9.23;100.00;99552.94;4292692;33;19961;-73
2023/01/03 06:15:20;;;;;;;;;;;;;;;9.31;100.00;99547.25;4291362;33;19980;-72
2023/01/03 06:18:01;;;;;;;;;;;;;;;9.32;100.00;99556.97;4292107;33;19978;-73
2023/01/03 06:20:27;;;;;;;;;;;;;;;9.16;100.00;99557.56;4284743;33;20667;-73
2023/01/03 06:22:54;;;;;;;;;;;;;;;8.91;100.00;99558.53;4318225;33;20419;-73
2023/01/03 06:25:21;;;;;;;;;;;;;;;9.31;100.00;99557.19;4322010;33;19950;-72
2023/01/03 06:27:47;;;;;;;;;;;;;;;9.24;100.00;99568.03;4322074;33;19982;-73
2023/01/03 06:30:14;;;;;;;;;;;;;;;9.31;100.00;99574.13;4312395;33;19958;-73
2023/01/03 06:32:41;;;;;;;;;;;;;;;9.17;100.00;99572.66;4312099;33;19945;-73
2023/01/03 06:35:07;;;;;;;;;;;;;;;9.36;100.00;99571.56;4314148;33;19940;-72
2023/01/03 06:37:34;;;;;;;;;;;;;;;8.98;100.00;99575.38;4316749;33;19948;-73
2023/01/03 06:40:00;;;;;;;;;;;;;;;9.16;100.00;99593.34;4301315;33;19967;-73
2023/01/03 06:42:38;;;;;;;;;;;;;;;9.18;100.00;99595.81;4301144;33;19950;-73
2023/01/03 06:53:22;;;;;;;;;;;;;;;9.17;100.00;99596.84;4310204;33;19969;-74
2023/01/03 06:55:49;;;;;;;;;;;;;;;8.90;100.00;99607.91;4296019;33;19998;-74
2023/01/03 06:58:15;;;;;;;;;;;;;;;9.04;100.00;99600.50;4306904;33;19953;-73
2023/01/03 07:00:42;;;;;;;;;;;;;;;8.79;100.00;99603.28;4309306;33;19982;-76
2023/01/03 07:03:09;;;;;;;;;;;;;;;8.99;100.00;99613.81;4307081;33;20004;-78
2023/01/03 07:05:35;;;;;;;;;;;;;;;9.15;100.00;99607.00;4298125;33;19968;-76
2023/01/03 07:08:03;;;;;;;;;;;;;;;9.08;100.00;99617.84;4309819;33;19964;-76
2023/01/03 07:10:29;;;;;;;;;;;;;;;8.96;100.00;99603.50;4309993;33;20014;-76
2023/01/03 07:15:44;;;;;;;;;;;;;;;9.16;100.00;99624.75;4321757;33;19958;-76
2023/01/03 07:18:10;;;;;;;;;;;;;;;8.92;100.00;99624.62;4304077;33;19962;-75
2023/01/03 07:20:40;;;;;;;;;;;;;;;8.86;100.00;99629.03;4321589;33;19940;-77
2023/01/03 07:23:06;;;;;;;;;;;;;;;8.80;100.00;99642.53;4319801;33;19945;-75
2023/01/03 07:25:32;;;;;;;;;;;;;;;8.91;100.00;99633.72;4320188;33;19978;-76
2023/01/03 07:27:59;;;;;;;;;;;;;;;8.87;100.00;99646.78;4320642;33;20025;-75
2023/01/03 07:30:25;;;;;;;;;;;;;;;8.93;100.00;99639.69;4301987;33;19941;-75
2023/01/03 07:32:51;;;;;;;;;;;;;;;8.62;100.00;99646.84;4316437;33;19953;-75
2023/01/03 07:35:18;;;;;;;;;;;;;;;9.03;100.00;99648.06;4310598;33;19956;-75
2023/01/03 07:37:45;;;;;;;;;;;;;;;9.04;100.00;99656.94;4311856;33;19984;-75
2023/01/03 07:40:11;;;;;;;;;;;;;;;9.01;100.00;99650.13;4310786;33;19975;-75
2023/01/03 07:45:22;;;;;;;;;;;;;;;8.79;100.00;99665.03;4310015;33;19958;-75
2023/01/03 07:47:48;;;;;;;;;;;;;;;8.47;100.00;99654.41;4302900;33;19957;-75
2023/01/03 07:50:14;;;;;;;;;;;;;;;8.80;100.00;99664.00;4303993;33;20000;-75
2023/01/03 07:52:41;;;;;;;;;;;;;;;8.39;100.00;99678.81;4297729;33;19936;-74
2023/01/03 07:55:07;;;;;;;;;;;;;;;8.65;100.00;99672.44;4280471;33;20005;-75
2023/01/03 07:57:33;;;;;;;;;;;;;;;8.73;100.00;99686.38;4243076;33;19946;-75
2023/01/03 08:00:00;;;;;;;;;;;;;;;8.88;100.00;99688.69;4251698;33;19952;-74
2023/01/03 08:02:27;;;;;;;;;;;;;;;8.88;100.00;99709.38;4251595;33;19951;-74
2023/01/03 08:04:53;;;;;;;;;;;;;;;8.85;100.00;99697.19;4253662;33;19952;-75
2023/01/03 08:07:19;;;;;;;;;;;;;;;8.54;100.00;99711.53;4262503;33;19996;-75
2023/01/03 08:15:15;;;;;;;;;;;;;;;8.77;100.00;99696.66;4255586;33;20298;-75
2023/01/03 08:17:41;;;;;;;;;;;;;;;8.79;100.00;99699.94;4251761;33;19958;-75
2023/01/03 08:20:07;;;;;;;;;;;;;;;9.07;100.00;99707.53;4253068;33;19969;-75
2023/01/03 08:22:34;;;;;;;;;;;;;;;8.78;100.00;99703.69;4252493;33;19938;-75
2023/01/03 08:25:00;;;;;;;;;;;;;;;8.36;100.00;99717.66;4251136;33;19965;-74
2023/01/03 08:27:27;;;;;;;;;;;;;;;8.77;100.00;99707.41;4268114;33;19952;-74
2023/01/03 08:29:53;;;;;;;;;;;;;;;8.95;100.00;99714.66;4283071;33;19975;-75
2023/01/03 08:32:20;;;;;;;;;;;;;;;8.88;100.00;99714.72;4280354;33;20002;-74
2023/01/03 08:34:47;;;;;;;;;;;;;;;8.36;100.00;99723.81;4284742;33;19945;-75
2023/01/03 08:37:14;;;;;;;;;;;;;;;8.73;100.00;99718.59;4246388;33;19954;-75
2023/01/03 08:39:55;;;;;;;;;;;;;;;8.75;100.00;99725.63;4240911;33;19965;-79
2023/01/03 08:42:24;;;;;;;;;;;;;;;8.58;100.00;99736.88;4222093;33;20412;-75
2023/01/03 08:44:54;;;;;;;;;;;;;;;8.66;100.00;99755.44;4209528;34;19939;-76
2023/01/03 08:47:20;;;;;;;;;;;;;;;8.65;100.00;99736.84;4194993;34;19955;-76
2023/01/03 08:49:46;;;;;;;;;;;;;;;8.92;100.00;99726.69;4214466;33;20371;-76
2023/01/03 08:52:15;;;;;;;;;;;;;;;8.80;100.00;99728.44;4214303;33;19972;-73
2023/01/03 08:54:45;;;;;;;;;;;;;;;8.46;100.00;99738.66;4222422;33;19965;-74
2023/01/03 08:57:11;;;;;;;;;;;;;;;8.91;100.00;99730.41;4223757;33;19946;-75
2023/01/03 08:59:38;;;;;;;;;;;;;;;8.68;100.00;99704.16;4219870;33;19960;-75
2023/01/03 09:02:05;;;;;;;;;;;;;;;8.92;100.00;99737.44;4220874;33;19951;-73
2023/01/03 09:04:31;;;;;;;;;;;;;;;8.29;100.00;99749.87;4220893;33;19953;-74
2023/01/03 09:06:57;;;;;;;;;;;;;;;8.40;100.00;99755.59;4222781;33;20040;-74
2023/01/03 09:09:23;;;;;;;;;;;;;;;8.68;100.00;99763.22;4233744;33;20061;-75
2023/01/03 09:11:50;;;;;;;;;;;;;;;8.76;100.00;99743.34;4233169;33;19964;-75
2023/01/03 09:14:16;;;;;;;;;;;;;;;8.26;100.00;99766.41;4253069;33;19952;-74
2023/01/03 09:16:42;;;;;;;;;;;;;;;8.08;100.00;99774.38;4273247;33;19945;-75
2023/01/03 09:19:08;;;;;;;;;;;;;;;8.59;100.00;99749.28;4287685;33;19953;-75
2023/01/03 09:21:35;;;;;;;;;;;;;;;8.26;100.00;99809.31;4257288;33;19946;-74
2023/01/03 09:24:01;;;;;;;;;;;;;;;8.12;100.00;99776.41;4263446;33;19973;-75
2023/01/03 09:26:28;;;;;;;;;;;;;;;8.33;100.00;99774.44;4238614;33;19952;-75
2023/01/03 09:28:54;;;;;;;;;;;;;;;8.47;100.00;99765.28;4238465;33;19952;-75
2023/01/03 09:31:21;;;;;;;;;;;;;;;8.60;100.00;99775.09;4208787;34;19942;-75
2023/01/03 09:33:47;;;;;;;;;;;;;;;8.64;100.00;99767.41;4221957;34;20002;-75
2023/01/03 09:36:13;;;;;;;;;;;;;;;8.68;100.00;99763.22;4222878;34;20133;-75
2023/01/03 09:38:39;;;;;;;;;;;;;;;8.39;100.00;99772.72;4180770;34;19970;-76
2023/01/03 09:41:08;;;;;;;;;;;;;;;8.57;100.00;99783.56;4151239;34;19966;-74
2023/01/03 09:43:39;;;;;;;;;;;;;;;8.37;100.00;99768.38;4162912;34;20404;-75
2023/01/03 09:46:10;;;;;;;;;;;;;;;8.49;100.00;99775.78;4163996;34;20124;-76
2023/01/03 09:48:38;;;;;;;;;;;;;;;8.58;100.00;99769.09;4164775;34;19962;-76
2023/01/03 10:03:42;;;;;;;;;;;;;;;8.39;100.00;99762.00;4166001;34;19968;-75
2023/01/03 10:05:13;;;;;;;;;;;;;;;8.24;100.00;99778.41;4223242;33;19954;-73
2023/01/03 10:07:45;;;;;;;;;;;;;;;8.33;100.00;99791.34;4223145;33;20345;-74
2023/01/03 10:10:30;;;;;;;;;;;;;;;8.40;100.00;99809.25;4233405;33;20320;-75
2023/01/03 10:13:19;;;;;;;;;;;;;;;7.99;100.00;99796.06;4271888;33;20350;-75
2023/01/03 10:15:46;;;;;;;;;;;;;;;8.33;100.00;99785.16;4321244;33;19948;-75
2023/01/03 10:18:15;;;;;;;;;;;;;;;7.98;100.00;99802.47;4323356;33;19953;-76
2023/01/03 10:20:47;;;;;;;;;;;;;;;7.92;100.00;99792.59;4315627;33;19975;-75
2023/01/03 10:23:13;;;;;;;;;;;;;;;8.18;100.00;99796.16;4316410;33;19981;-74
2023/01/03 10:25:41;;;;;;;;;;;;;;;7.86;100.00;99788.09;4315150;33;19967;-75
2023/01/03 10:28:28;;;;;;;;;;;;;;;8.14;100.00;99785.06;4315063;33;20297;-75
2023/01/03 10:31:11;;;;;;;;;;;;;;;8.22;100.00;99781.31;4285650;33;19937;-75
2023/01/03 10:33:39;;;;;;;;;;;;;;;7.94;100.00;99777.09;4283095;33;19987;-74
2023/01/03 10:36:07;;;;;;;;;;;;;;;8.29;100.00;99782.06;4288715;33;20037;-74
2023/01/03 10:38:34;;;;;;;;;;;;;;;8.14;100.00;99778.88;4294084;33;20032;-74
2023/01/03 10:41:00;;;;;;;;;;;;;;;8.10;100.00;99783.00;4286629;33;19953;-75
2023/01/03 10:43:36;;;;;;;;;;;;;;;7.79;100.00;99792.66;4284693;33;20307;-73
2023/01/03 10:46:04;;;;;;;;;;;;;;;7.85;100.00;99783.78;4280184;33;20031;-74
2023/01/03 10:48:35;;;;;;;;;;;;;;;7.97;100.00;99784.72;4294658;33;19949;-73
2023/01/03 10:51:03;;;;;;;;;;;;;;;7.90;100.00;99799.22;4267619;33;19953;-73
2023/01/03 10:53:34;;;;;;;;;;;;;;;8.07;100.00;99788.81;4267744;33;19988;-73
2023/01/03 10:56:01;;;;;;;;;;;;;;;8.09;100.00;99792.09;4261802;33;19946;-73
2023/01/03 10:58:27;;;;;;;;;;;;;;;8.02;100.00;99788.63;4269662;33;19963;-74
2023/01/03 11:01:08;;;;;;;;;;;;;;;7.82;100.00;99776.16;4266046;33;19962;-74
2023/01/03 11:03:36;;;;;;;;;;;;;;;7.90;100.00;99786.63;4270359;33;20008;-74
2023/01/03 11:06:02;;;;;;;;;;;;;;;8.06;100.00;99773.75;4271756;33;20069;-75
2023/01/03 11:08:43;;;;;;;;;;;;;;;8.14;100.00;99766.28;4269168;33;19945;-75
2023/01/03 11:11:24;;;;;;;;;;;;;;;7.85;100.00;99781.09;4266808;33;20269;-74
2023/01/03 11:13:50;;;;;;;;;;;;;;;8.65;100.00;99787.87;4273592;33;19961;-74
2023/01/03 11:16:18;;;;;;;;;;;;;;;8.82;100.00;99767.47;4276714;33;19982;-75
2023/01/03 11:19:04;;;;;;;;;;;;;;;9.23;100.00;99775.97;4274487;33;20097;-73
2023/01/03 11:21:49;;;;;;;;;;;;;;;9.01;100.00;99784.44;4259604;33;20611;-74
2023/01/03 11:24:34;;;;;;;;;;;;;;;9.18;100.00;99779.31;4293130;33;19948;-74
2023/01/03 11:27:20;;;;;;;;;;;;;;;9.24;100.00;99789.19;4289448;33;20293;-75
2023/01/03 11:29:57;;;;;;;;;;;;;;;9.14;100.00;99779.97;4251555;33;19960;-76
2023/01/03 11:32:47;;;;;;;;;;;;;;;8.91;100.00;99803.72;4249882;33;19946;-75
2023/01/03 11:35:14;;;;;;;;;;;;;;;8.75;100.00;99808.84;4252491;33;19945;-76
2023/01/03 11:38:00;;;;;;;;;;;;;;;8.65;100.00;99799.41;4253813;33;19938;-74
2023/01/03 11:40:41;;;;;;;;;;;;;;;8.40;100.00;99802.03;4254098;33;19963;-74
2023/01/03 11:43:20;;;;;;;;;;;;;;;8.30;100.00;99810.56;4253754;33;19964;-75
2023/01/03 11:45:58;;;;;;;;;;;;;;;8.46;100.00;99792.34;4252297;33;19965;-74
2023/01/03 11:48:49;;;;;;;;;;;;;;;8.38;100.00;99796.06;4254055;33;19952;-74
2023/01/03 11:51:18;;;;;;;;;;;;;;;8.29;100.00;99814.25;4218197;34;19942;-74
2023/01/03 11:53:55;;;;;;;;;;;;;;;8.40;100.00;99802.03;4225927;34;20000;-74
2023/01/03 11:56:21;;;;;;;;;;;;;;;7.84;100.00;99814.28;4221054;34;19946;-75
2023/01/03 11:58:53;;;;;;;;;;;;;;;8.07;100.00;99805.72;4218975;33;19952;-74
2023/01/03 12:01:22;;;;;;;;;;;;;;;8.21;100.00;99806.47;4416754;28;20043;-74
2023/01/03 12:04:16;;;;;;;;;;;;;;;7.78;100.00;99807.09;4279804;33;20263;-74
2023/01/03 12:06:48;;;;;;;;;;;;;;;7.98;100.00;99790.94;4282513;33;19976;-74
2023/01/03 12:09:19;;;;;;;;;;;;;;;8.17;100.00;99798.03;4280665;33;19941;-74
2023/01/03 12:11:45;;;;;;;;;;;;;;;8.33;100.00;99796.72;4282289;33;19991;-73
2023/01/03 12:14:20;;;;;;;;;;;;;;;8.34;100.00;99795.69;4282004;33;20334;-75
2023/01/03 12:17:08;;;;;;;;;;;;;;;8.40;100.00;99783.25;4266280;33;19945;-75
2023/01/03 12:19:43;;;;;;;;;;;;;;;8.86;100.00;99792.03;4267415;33;19949;-74
2023/01/03 12:22:12;;;;;;;;;;;;;;;8.54;100.00;99808.16;4279749;33;19937;-73
2023/01/03 12:24:58;;;;;;;;;;;;;;;8.50;100.00;99798.91;4293210;33;20012;-75
2023/01/03 12:27:29;;;;;;;;;;;;;;;8.56;100.00;99806.09;4280342;33;19946;-75
2023/01/03 12:29:55;;;;;;;;;;;;;;;8.32;100.00;99797.75;4284122;33;20072;-75
2023/01/03 12:32:26;;;;;;;;;;;;;;;8.48;100.00;99800.97;4295602;33;20337;-75
2023/01/03 12:34:52;;;;;;;;;;;;;;;8.54;100.00;99789.38;4295849;33;20065;-75
2023/01/03 12:37:23;;;;;;;;;;;;;;;8.15;100.00;99791.22;4294568;33;19941;-76
2023/01/03 12:39:54;;;;;;;;;;;;;;;8.29;100.00;99782.06;4296410;33;19953;-75
2023/01/03 12:42:32;;;;;;;;;;;;;;;8.47;100.00;99781.38;4295386;33;19947;-74
2023/01/03 12:45:02;;;;;;;;;;;;;;;8.28;100.00;99785.81;4296128;33;19962;-75
2023/01/03 12:47:31;;;;;;;;;;;;;;;8.35;100.00;99773.16;4294049;33;19960;-76
2023/01/03 12:50:04;;;;;;;;;;;;;;;8.42;100.00;99767.75;4306416;33;19982;-75
2023/01/03 12:52:32;;;;;;;;;;;;;;;8.26;100.00;99771.75;4305940;33;19955;-75
2023/01/03 12:55:02;;;;;;;;;;;;;;;7.81;100.00;99755.72;4300256;33;19944;-75
2023/01/03 12:57:48;;;;;;;;;;;;;;;7.93;100.00;99772.78;4302455;33;19992;-76
2023/01/03 13:00:22;;;;;;;;;;;;;;;7.62;100.00;99771.69;4302912;33;19951;-76
2023/01/03 13:02:54;;;;;;;;;;;;;;;7.99;100.00;99777.31;4302498;33;19997;-76
2023/01/03 13:05:29;;;;;;;;;;;;;;;7.35;100.00;99772.81;4281585;33;20032;-76
2023/01/03 13:07:56;;;;;;;;;;;;;;;7.45;100.00;99781.22;4279861;33;19945;-75
2023/01/03 13:10:25;;;;;;;;;;;;;;;7.79;100.00;99781.94;4277003;33;19937;-77
2023/01/03 13:12:52;;;;;;;;;;;;;;;7.69;100.00;99768.16;4279946;33;19996;-77
2023/01/03 13:15:34;;;;;;;;;;;;;;;7.43;100.00;99784.09;4280020;33;19945;-76
2023/01/03 13:18:19;;;;;;;;;;;;;;;7.66;100.00;99787.34;4288086;33;20870;-78
2023/01/03 13:20:48;;;;;;;;;;;;;;;7.50;100.00;99789.47;4299324;33;19937;-77
2023/01/03 13:23:34;;;;;;;;;;;;;;;7.47;100.00;99792.56;4300575;33;19941;-78
2023/01/03 13:26:06;;;;;;;;;;;;;;;7.32;100.00;99805.38;4298748;33;20765;-77
2023/01/03 13:28:36;;;;;;;;;;;;;;;7.11;100.00;99791.19;4302532;33;19953;-77
2023/01/03 13:31:25;;;;;;;;;;;;;;;7.34;100.00;99805.97;4275691;33;19957;-77
2023/01/03 13:33:54;;;;;;;;;;;;;;;6.91;100.00;99826.03;4250588;33;19988;-74
2023/01/03 13:36:21;;;;;;;;;;;;;;;6.67;100.00;99811.37;4258979;33;19967;-77
2023/01/03 13:38:48;;;;;;;;;;;;;;;7.18;100.00;99800.06;4266572;33;20320;-76
2023/01/03 13:41:26;;;;;;;;;;;;;;;7.09;100.00;99798.62;4265258;33;19945;-75
2023/01/03 13:43:53;;;;;;;;;;;;;;;6.90;100.00;99810.97;4264471;33;19958;-76
2023/01/03 13:46:29;;;;;;;;;;;;;;;7.10;100.00;99813.66;4266326;33;19968;-75
2023/01/03 13:49:00;;;;;;;;;;;;;;;7.07;100.00;99806.03;4266767;33;19945;-75
2023/01/03 13:51:44;;;;;;;;;;;;;;;7.12;100.00;99811.59;4265918;33;19957;-75
2023/01/03 13:54:10;;;;;;;;;;;;;;;6.59;100.00;99814.25;4251037;33;19942;-75
2023/01/03 13:56:42;;;;;;;;;;;;;;;6.95;100.00;99823.75;4256783;33;20509;-75
2023/01/03 13:59:17;;;;;;;;;;;;;;;7.07;100.00;99817.56;4249574;33;20065;-76
2023/01/03 14:02:02;;;;;;;;;;;;;;;6.79;100.00;99835.69;4257207;33;20335;-75
2023/01/03 14:04:32;;;;;;;;;;;;;;;6.36;100.00;99831.50;4289800;33;20329;-75
2023/01/03 14:07:00;;;;;;;;;;;;;;;6.55;100.00;99832.56;4300882;33;19960;-75
2023/01/03 14:09:27;;;;;;;;;;;;;;;6.67;100.00;99848.84;4301593;33;19947;-75
2023/01/03 14:11:53;;;;;;;;;;;;;;;6.64;100.00;99833.22;4303583;33;19978;-75
2023/01/03 14:14:27;;;;;;;;;;;;;;;6.66;100.00;99841.87;4300501;33;19944;-75
2023/01/03 14:16:56;;;;;;;;;;;;;;;6.78;100.00;99834.03;4300445;33;19952;-76
2023/01/03 14:19:31;;;;;;;;;;;;;;;6.44;100.00;99844.69;4293314;33;19955;-76
2023/01/03 14:22:17;;;;;;;;;;;;;;;6.53;100.00;99843.47;4296426;33;19940;-76
2023/01/03 14:24:47;;;;;;;;;;;;;;;6.72;100.00;99841.06;4290488;33;19942;-75
2023/01/03 14:27:15;;;;;;;;;;;;;;;6.28;100.00;99847.75;4287675;33;19959;-75
2023/01/03 14:29:42;;;;;;;;;;;;;;;6.18;100.00;99846.28;4289488;33;19984;-75
2023/01/03 14:32:24;;;;;;;;;;;;;;;6.40;100.00;99851.50;4292197;33;20082;-75
2023/01/03 14:34:52;;;;;;;;;;;;;;;6.20;100.00;99858.63;4290883;33;20448;-74
2023/01/03 14:37:20;;;;;;;;;;;;;;;6.12;100.00;99857.75;4296044;33;19949;-75
2023/01/03 14:39:52;;;;;;;;;;;;;;;6.33;100.00;99864.00;4293150;33;19941;-76
2023/01/03 14:42:18;;;;;;;;;;;;;;;6.43;100.00;99859.13;4291764;33;19941;-75
2023/01/03 14:44:54;;;;;;;;;;;;;;;6.14;100.00;99861.09;4271413;33;19987;-76
2023/01/03 14:47:21;;;;;;;;;;;;;;;6.12;100.00;99855.09;4247616;33;20266;-75
2023/01/03 14:49:48;;;;;;;;;;;;;;;6.02;100.00;99868.03;4249726;33;19966;-77
2023/01/03 14:52:34;;;;;;;;;;;;;;;5.82;100.00;99863.37;4250398;33;20352;-77
2023/01/03 14:55:06;;;;;;;;;;;;;;;5.62;100.00;99867.78;4263662;33;19953;-77
2023/01/03 14:57:35;;;;;;;;;;;;;;;5.85;100.00;99864.00;4249494;33;20003;-76
2023/01/03 15:00:03;;;;;;;;;;;;;;;5.94;100.00;99871.66;4251452;33;19961;-77
2023/01/03 15:02:34;;;;;;;;;;;;;;;5.79;100.00;99874.47;4249896;33;20073;-76
2023/01/03 15:05:01;;;;;;;;;;;;;;;5.81;100.00;99891.12;4251617;33;20069;-76
2023/01/03 15:07:37;;;;;;;;;;;;;;;5.94;100.00;99885.03;4263648;33;19969;-77
2023/01/03 15:10:24;;;;;;;;;;;;;;;5.67;100.00;99891.25;4263914;33;19949;-77
2023/01/03 15:12:53;;;;;;;;;;;;;;;5.73;100.00;99896.63;4253665;33;19957;-76
2023/01/03 15:15:21;;;;;;;;;;;;;;;5.99;100.00;99895.16;4254371;33;19946;-75
2023/01/03 15:17:49;;;;;;;;;;;;;;;5.93;100.00;99890.56;4240574;33;19954;-74
2023/01/03 15:20:17;;;;;;;;;;;;;;;5.91;100.00;99887.28;4225133;34;19947;-75
2023/01/03 15:22:44;;;;;;;;;;;;;;;5.96;100.00;99895.53;4241874;33;20080;-75
2023/01/03 15:25:25;;;;;;;;;;;;;;;5.95;100.00;99904.53;4252488;33;19960;-74
2023/01/03 15:27:52;;;;;;;;;;;;;;;5.97;100.00;99900.69;4267191;33;20016;-77
2023/01/03 15:30:22;;;;;;;;;;;;;;;5.66;100.00;99900.28;4280624;33;20086;-75
2023/01/03 15:32:58;;;;;;;;;;;;;;;5.58;100.00;99896.72;4279228;33;20374;-75
2023/01/03 15:35:35;;;;;;;;;;;;;;;5.55;100.00;99904.31;4278560;33;19959;-75
2023/01/03 15:38:04;;;;;;;;;;;;;;;5.46;100.00;99907.16;4278977;33;20100;-76
2023/01/03 15:40:32;;;;;;;;;;;;;;;5.45;100.00;99910.81;4281238;33;19963;-75
2023/01/03 15:43:23;;;;;;;;;;;;;;;5.44;100.00;99909.19;4280023;33;20445;-76
2023/01/03 15:45:56;;;;;;;;;;;;;;;5.62;100.00;99907.88;4290042;33;19952;-76
2023/01/03 15:48:24;;;;;;;;;;;;;;;5.46;100.00;99912.50;4291865;33;20278;-76
2023/01/03 15:50:52;;;;;;;;;;;;;;;5.52;100.00;99920.72;4292710;33;19984;-75
2023/01/03 15:53:29;;;;;;;;;;;;;;;5.32;100.00;99920.59;4294826;33;19950;-75